Time;durP1;ratioP1;P1;durP2;ratioP2;P2;SDS_P1;SDS_P2;PMS_P1;PMS_P2;Temp;Humidity;BMP_temperature;BMP_pressure;BME280_temperature;BME280_humidity;BME280_pressure;Samples;Min_cycle;Max_cycle;Signal;HPM_P1;HPM_P2
2022/03/09 00:01:34;;;;;;;64.10;33.40;;;;;;;0.87;72.87;100551.20;215034;1274;142068;-73
2022/03/09 00:06:38;;;;;;;74.60;34.10;;;;;;;0.90;72.93;100546.73;213872;1274;139889;-65
2022/03/09 00:11:43;;;;;;;73.40;37.80;;;;;;;0.94;73.16;100548.58;213909;1274;141065;-76
2022/03/09 00:16:47;;;;;;;76.50;36.60;;;;;;;0.92;73.17;100543.81;214060;1274;140152;-69
2022/03/09 00:21:52;;;;;;;56.80;32.80;;;;;;;0.97;73.45;100542.80;214327;1274;139981;-68
2022/03/09 00:26:57;;;;;;;53.80;28.70;;;;;;;1.03;73.72;100534.70;213926;1274;141449;-72
2022/03/09 00:32:02;;;;;;;53.90;30.20;;;;;;;1.07;73.50;100531.38;214447;1274;141975;-69
2022/03/09 00:37:09;;;;;;;60.90;31.10;;;;;;;1.11;73.56;100527.50;213537;1274;140507;-72
2022/03/09 00:42:13;;;;;;;58.80;32.70;;;;;;;1.08;73.60;100517.05;214292;1274;141037;-71
2022/03/09 00:47:18;;;;;;;51.20;28.90;;;;;;;1.05;73.83;100513.38;213179;1274;140804;-73
2022/03/09 00:52:23;;;;;;;51.40;27.90;;;;;;;0.97;73.69;100508.17;213854;1274;151997;-72
2022/03/09 00:57:27;;;;;;;46.10;27.80;;;;;;;0.95;73.62;100501.30;213620;1274;140310;-69
2022/03/09 01:02:30;;;;;;;52.00;29.00;;;;;;;0.97;73.91;100488.91;213212;1274;140658;-66
2022/03/09 01:07:35;;;;;;;47.50;26.70;;;;;;;0.97;73.74;100473.89;213876;1274;140995;-67
2022/03/09 01:12:39;;;;;;;51.30;26.10;;;;;;;0.92;74.00;100473.63;213456;1274;141260;-66
2022/03/09 01:17:44;;;;;;;58.30;26.00;;;;;;;0.90;74.16;100474.05;214274;1274;141896;-68
2022/03/09 01:22:49;;;;;;;51.30;29.30;;;;;;;0.90;74.11;100470.05;214008;1274;141000;-68
2022/03/09 01:27:53;;;;;;;70.30;29.90;;;;;;;0.88;74.13;100468.84;214187;1274;142944;-69
2022/03/09 01:32:56;;;;;;;68.20;31.20;;;;;;;0.90;74.40;100467.77;214849;1274;141637;-70
2022/03/09 01:38:01;;;;;;;72.00;33.80;;;;;;;0.96;74.24;100465.05;214572;1274;141548;-71
2022/03/09 01:43:06;;;;;;;58.90;30.70;;;;;;;0.98;74.30;100465.55;213746;1274;141700;-69
2022/03/09 01:48:11;;;;;;;63.10;27.00;;;;;;;0.90;74.40;100468.66;215743;1273;140388;-72
2022/03/09 01:53:16;;;;;;;54.50;24.70;;;;;;;0.90;74.45;100465.16;216100;1274;141810;-74
2022/03/09 01:58:21;;;;;;;45.40;20.90;;;;;;;0.96;74.29;100465.70;215921;1274;142005;-76
2022/03/09 02:03:25;;;;;;;57.10;28.30;;;;;;;1.03;74.34;100464.20;214995;1274;142411;-75
2022/03/09 02:13:53;;;;;;;51.40;24.40;;;;;;;0.95;74.40;100454.05;215089;1274;140040;-71
2022/03/09 02:19:01;;;;;;;49.60;25.40;;;;;;;0.88;74.18;100449.56;214827;1274;142389;-75
2022/03/09 02:24:07;;;;;;;45.80;24.90;;;;;;;0.79;73.90;100454.91;213347;1274;140422;-75
2022/03/09 02:29:13;;;;;;;43.30;21.10;;;;;;;0.69;74.00;100455.55;213942;1274;625062;-74
2022/03/09 02:34:18;;;;;;;50.40;24.00;;;;;;;0.57;73.79;100462.70;213389;1274;140543;-73
2022/03/09 02:39:23;;;;;;;42.80;21.30;;;;;;;0.42;73.87;100471.75;214373;1273;140217;-73
2022/03/09 02:44:28;;;;;;;38.70;22.40;;;;;;;0.27;74.09;100473.39;213494;1274;140753;-69
2022/03/09 02:49:33;;;;;;;41.70;22.90;;;;;;;0.11;73.79;100469.40;213977;1274;140513;-71
2022/03/09 02:54:37;;;;;;;37.20;20.10;;;;;;;-0.02;73.70;100466.57;213865;1274;141820;-70
2022/03/09 02:59:43;;;;;;;40.00;19.40;;;;;;;-0.08;73.90;100467.73;214418;1274;142432;-71
2022/03/09 03:04:48;;;;;;;38.90;21.50;;;;;;;-0.09;74.20;100465.85;213646;1274;140445;-70
2022/03/09 03:09:54;;;;;;;46.00;24.20;;;;;;;-0.13;74.11;100469.50;213768;1274;141021;-69
2022/03/09 03:14:59;;;;;;;44.50;23.50;;;;;;;-0.26;73.97;100464.98;214667;1273;141111;-73
2022/03/09 03:20:04;;;;;;;41.30;23.50;;;;;;;-0.42;73.99;100466.27;214333;1274;141482;-73
2022/03/09 03:25:10;;;;;;;47.20;22.40;;;;;;;-0.56;73.92;100468.48;213409;1276;141063;-73
2022/03/09 03:30:14;;;;;;;34.80;18.40;;;;;;;-0.64;74.06;100471.02;214721;1274;141388;-73
2022/03/09 03:35:18;;;;;;;32.90;18.20;;;;;;;-0.74;74.00;100479.30;214778;1276;142767;-72
2022/03/09 03:40:23;;;;;;;32.80;18.90;;;;;;;-0.76;74.00;100480.51;214991;1276;140994;-68
2022/03/09 03:45:29;;;;;;;39.90;20.30;;;;;;;-0.84;74.24;100480.04;215710;1276;140159;-73
2022/03/09 03:50:35;;;;;;;50.40;23.20;;;;;;;-0.88;74.38;100479.77;215889;1276;141265;-76
2022/03/09 03:55:39;;;;;;;39.60;22.60;;;;;;;-0.87;74.52;100470.95;215627;1276;140712;-77
2022/03/09 04:00:43;;;;;;;33.30;17.80;;;;;;;-0.87;74.33;100468.27;215577;1276;141480;-76
2022/03/09 04:05:49;;;;;;;39.60;20.70;;;;;;;-0.89;74.20;100463.44;215060;1276;140842;-72
2022/03/09 04:10:54;;;;;;;29.30;17.10;;;;;;;-0.92;74.37;100463.23;214790;1276;140625;-71
2022/03/09 04:15:59;;;;;;;32.30;20.10;;;;;;;-1.02;74.40;100465.73;213928;1276;140729;-70
2022/03/09 04:21:05;;;;;;;43.20;25.70;;;;;;;-1.10;74.59;100464.28;213639;1276;140011;-68
2022/03/09 04:26:10;;;;;;;37.50;19.40;;;;;;;-1.13;74.60;100462.19;213970;1275;140678;-69
2022/03/09 04:31:15;;;;;;;35.10;19.90;;;;;;;-1.17;74.73;100459.75;214761;1275;231720;-74
2022/03/09 04:36:19;;;;;;;33.10;19.50;;;;;;;-1.20;74.97;100459.64;214413;1276;141653;-74
2022/03/09 04:41:24;;;;;;;36.00;18.20;;;;;;;-1.24;74.81;100460.05;214295;1276;141865;-68
2022/03/09 04:46:29;;;;;;;44.00;22.10;;;;;;;-1.27;74.97;100463.45;213384;1276;140837;-67
2022/03/09 04:51:36;;;;;;;49.80;21.70;;;;;;;-1.30;75.14;100465.19;213996;1275;140578;-68
2022/03/09 04:56:41;;;;;;;30.80;16.90;;;;;;;-1.28;75.30;100465.52;213037;1276;141300;-68
2022/03/09 05:01:48;;;;;;;36.20;19.50;;;;;;;-1.28;75.39;100470.77;214094;1275;140906;-68
2022/03/09 05:06:53;;;;;;;30.10;17.50;;;;;;;-1.33;75.59;100463.66;213250;1276;140501;-73
2022/03/09 05:11:59;;;;;;;38.70;20.40;;;;;;;-1.33;75.65;100460.35;213600;1276;140226;-67
2022/03/09 05:17:03;;;;;;;36.70;20.40;;;;;;;-1.30;75.59;100467.30;213340;1276;141140;-71
2022/03/09 05:22:08;;;;;;;40.60;24.00;;;;;;;-1.30;75.58;100475.33;214679;1275;141253;-73
2022/03/09 05:27:26;;;;;;;43.30;20.70;;;;;;;-1.31;75.64;100483.55;213713;1274;141520;-70
2022/03/09 05:32:30;;;;;;;39.40;21.00;;;;;;;-1.36;75.79;100490.10;214713;1274;142432;-70
2022/03/09 05:37:40;;;;;;;40.00;21.90;;;;;;;-1.38;75.75;100487.83;214734;1274;140525;-68
2022/03/09 05:42:45;;;;;;;50.20;25.60;;;;;;;-1.32;75.79;100497.95;214794;1274;140494;-70
2022/03/09 05:47:55;;;;;;;49.60;25.00;;;;;;;-1.22;75.97;100502.38;215968;1274;142585;-74
2022/03/09 05:52:58;;;;;;;45.50;23.50;;;;;;;-1.09;76.25;100500.63;215857;1274;141097;-74
2022/03/09 05:58:02;;;;;;;36.30;20.70;;;;;;;-0.98;75.92;100496.59;215812;1274;141667;-66
2022/03/09 06:03:06;;;;;;;51.90;25.70;;;;;;;-0.89;76.01;100502.02;215551;1274;142131;-68
2022/03/09 06:08:10;;;;;;;34.70;20.70;;;;;;;-0.75;75.99;100506.24;215964;1274;140652;-70
2022/03/09 06:13:14;;;;;;;36.00;20.70;;;;;;;-0.62;75.80;100517.25;214130;1276;142717;-71
2022/03/09 06:18:18;;;;;;;31.40;19.10;;;;;;;-0.43;75.75;100522.58;215319;1276;141860;-70
2022/03/09 06:23:21;;;;;;;42.10;23.00;;;;;;;-0.13;75.67;100527.61;213421;1274;150730;-69
2022/03/09 06:28:24;;;;;;;36.10;20.00;;;;;;;0.05;75.54;100538.42;213890;1276;140188;-72
2022/03/09 06:33:30;;;;;;;35.40;19.30;;;;;;;0.17;75.32;100540.92;213250;1274;140099;-72
2022/03/09 06:38:34;;;;;;;37.10;18.20;;;;;;;0.28;75.02;100544.45;214128;1275;140174;-71
2022/03/09 06:43:39;;;;;;;34.30;17.80;;;;;;;0.40;74.94;100544.09;214147;1274;140563;-70
2022/03/09 06:48:43;;;;;;;30.80;16.30;;;;;;;0.53;74.78;100545.27;213167;1276;141702;-70
2022/03/09 06:53:48;;;;;;;48.10;20.80;;;;;;;0.75;74.57;100541.73;212937;1274;141335;-72
2022/03/09 06:58:51;;;;;;;32.70;19.50;;;;;;;0.99;74.21;100545.99;213789;1274;141519;-74
2022/03/09 07:03:56;;;;;;;27.00;16.10;;;;;;;1.32;73.87;100548.28;214213;1274;140578;-68
2022/03/09 07:09:00;;;;;;;33.70;18.10;;;;;;;1.44;73.98;100552.08;213262;1274;141258;-69
2022/03/09 07:14:05;;;;;;;22.90;13.80;;;;;;;1.54;73.37;100561.59;215331;1274;140412;-73
2022/03/09 07:19:10;;;;;;;24.40;14.60;;;;;;;2.20;73.14;100564.01;214454;1274;140854;-72
2022/03/09 07:24:15;;;;;;;23.60;14.20;;;;;;;3.37;73.12;100563.64;214000;1274;142055;-70
2022/03/09 07:29:20;;;;;;;20.80;12.30;;;;;;;4.83;71.50;100562.58;214443;1274;140786;-69
2022/03/09 07:34:26;;;;;;;25.40;14.20;;;;;;;6.03;69.92;100565.44;214144;1274;140364;-71
2022/03/09 07:39:30;;;;;;;19.10;11.50;;;;;;;7.02;68.77;100566.55;215071;1274;140817;-72
2022/03/09 07:44:36;;;;;;;16.50;11.20;;;;;;;7.70;67.02;100564.65;214279;1274;141112;-73
2022/03/09 07:49:40;;;;;;;17.80;12.60;;;;;;;7.95;66.53;100559.66;214432;1274;141041;-71
2022/03/09 07:54:45;;;;;;;22.80;12.60;;;;;;;8.01;65.45;100558.70;215510;1274;141076;-72
2022/03/09 07:59:49;;;;;;;20.10;12.40;;;;;;;7.85;64.71;100564.55;214554;1274;143735;-75
2022/03/09 08:04:52;;;;;;;19.10;12.50;;;;;;;7.53;64.06;100556.48;216006;1274;140529;-77
2022/03/09 08:09:57;;;;;;;19.90;11.50;;;;;;;7.30;64.27;100558.55;215879;1274;140287;-73
2022/03/09 08:15:05;;;;;;;21.00;11.60;;;;;;;7.20;64.35;100559.74;215335;1274;140570;-73
2022/03/09 08:20:10;;;;;;;19.10;12.10;;;;;;;7.11;63.72;100548.98;214382;1274;140519;-71
2022/03/09 08:25:14;;;;;;;17.30;11.90;;;;;;;7.01;63.74;100543.37;215196;1274;141814;-73
2022/03/09 08:30:17;;;;;;;14.60;10.90;;;;;;;6.79;63.00;100538.48;215422;1274;140402;-74
2022/03/09 08:35:21;;;;;;;19.30;11.30;;;;;;;6.60;63.39;100536.48;214002;1274;140732;-69
2022/03/09 08:40:25;;;;;;;23.80;11.90;;;;;;;6.48;63.05;100544.45;213168;1274;141171;-72
2022/03/09 08:45:30;;;;;;;17.80;11.30;;;;;;;6.47;63.13;100538.08;213805;1274;140726;-71
2022/03/09 08:50:34;;;;;;;26.30;14.50;;;;;;;6.49;62.84;100535.14;213614;1274;141277;-74
2022/03/09 08:55:44;;;;;;;15.80;10.10;;;;;;;6.52;63.05;100535.73;214420;1274;141181;-74
2022/03/09 09:00:50;;;;;;;21.20;12.70;;;;;;;6.58;62.72;100537.63;214309;1274;143365;-73
2022/03/09 09:05:53;;;;;;;16.00;11.70;;;;;;;6.58;62.56;100542.77;213778;1274;142938;-71
2022/03/09 09:11:00;;;;;;;17.50;11.30;;;;;;;6.60;62.70;100538.16;214588;1274;141870;-73
2022/03/09 09:16:04;;;;;;;16.20;10.90;;;;;;;6.67;62.22;100536.80;213455;1275;141869;-72
2022/03/09 09:21:10;;;;;;;10.80;7.90;;;;;;;6.75;62.23;100543.02;214808;1274;140634;-75
2022/03/09 09:26:15;;;;;;;17.30;11.10;;;;;;;6.88;62.04;100545.66;215193;1274;140202;-72
2022/03/09 09:31:40;;;;;;;16.00;9.80;;;;;;;7.01;61.65;100547.04;215514;1274;139905;-78
2022/03/09 09:36:46;;;;;;;14.00;9.30;;;;;;;7.19;61.15;100545.13;214825;1277;141143;-73
2022/03/09 09:41:52;;;;;;;14.50;8.20;;;;;;;7.28;60.66;100542.55;215496;1274;141048;-74
2022/03/09 09:46:59;;;;;;;13.40;8.00;;;;;;;7.36;59.99;100544.11;215758;1274;140086;-77
2022/03/09 09:52:05;;;;;;;12.40;7.70;;;;;;;7.42;59.48;100551.69;216027;1274;140599;-73
2022/03/09 09:57:13;;;;;;;16.90;9.30;;;;;;;7.57;59.54;100555.64;215888;1274;140568;-76
2022/03/09 10:02:17;;;;;;;16.60;8.80;;;;;;;7.71;59.30;100564.23;215998;1274;139620;-75
2022/03/09 10:07:22;;;;;;;15.00;10.40;;;;;;;7.82;58.79;100563.81;216091;1274;140831;-74
2022/03/09 10:12:29;;;;;;;10.50;8.40;;;;;;;7.96;58.65;100570.13;214443;1274;140037;-71
2022/03/09 10:18:10;;;;;;;15.30;10.00;;;;;;;7.90;57.53;100567.20;215385;1274;140178;-72
2022/03/09 10:23:20;;;;;;;14.10;10.30;;;;;;;7.78;57.43;100558.69;215676;1274;141321;-74
2022/03/09 10:28:24;;;;;;;12.10;8.20;;;;;;;7.88;57.03;100556.16;214358;1274;141245;-72
2022/03/09 10:33:28;;;;;;;13.60;8.80;;;;;;;7.99;56.83;100547.63;214214;1274;221405;-76
2022/03/09 10:38:34;;;;;;;;;;;;;;;8.01;56.71;100541.63;214741;1274;141501;-80
2022/03/09 10:43:49;;;;;;;14.40;8.80;;;;;;;8.08;56.33;100539.98;213954;1274;126459;-72
2022/03/09 10:49:00;;;;;;;13.80;6.40;;;;;;;8.19;56.05;100544.45;214924;1274;140460;-78
2022/03/09 10:54:16;;;;;;;12.10;7.80;;;;;;;8.27;55.31;100538.05;214460;1274;139563;-73
2022/03/09 10:59:24;;;;;;;17.90;6.60;;;;;;;8.18;54.92;100535.90;215866;1274;141303;-74
2022/03/09 11:04:28;;;;;;;8.60;5.70;;;;;;;8.17;54.36;100529.85;213848;1274;140823;-75
2022/03/09 11:09:35;;;;;;;11.70;7.10;;;;;;;8.27;54.11;100527.27;214270;1274;139763;-76
2022/03/09 11:14:41;;;;;;;9.00;6.30;;;;;;;8.43;54.40;100531.19;214111;1274;140297;-69
2022/03/09 11:19:47;;;;;;;11.30;6.60;;;;;;;8.64;54.10;100528.06;213345;1274;139674;-74
2022/03/09 11:24:53;;;;;;;11.90;6.70;;;;;;;8.73;52.95;100530.08;213905;1274;140252;-73
2022/03/09 11:30:18;;;;;;;7.30;6.00;;;;;;;8.72;52.63;100529.59;214719;1274;140189;-76
2022/03/09 11:35:41;;;;;;;11.60;7.30;;;;;;;8.73;52.58;100530.65;214001;1274;140125;-77
2022/03/09 11:41:17;;;;;;;12.40;8.00;;;;;;;8.83;52.21;100529.20;214171;1274;139708;-68
2022/03/09 11:46:21;;;;;;;10.00;7.20;;;;;;;8.85;52.01;100527.06;214189;1274;139957;-71
2022/03/09 11:51:27;;;;;;;13.60;8.20;;;;;;;8.83;51.81;100525.92;213121;1274;139856;-75
2022/03/09 11:56:38;;;;;;;12.00;7.70;;;;;;;8.87;52.05;100528.77;215120;1274;140776;-78
2022/03/09 12:01:58;;;;;;;10.30;7.40;;;;;;;8.82;51.58;100532.39;214448;1274;142950;-79
2022/03/09 12:07:03;;;;;;;16.00;7.60;;;;;;;8.86;51.20;100532.00;215448;1274;140452;-73
2022/03/09 12:12:10;;;;;;;9.50;5.80;;;;;;;8.82;51.26;100529.56;215242;1274;140446;-76
2022/03/09 12:17:27;;;;;;;10.50;7.80;;;;;;;8.87;50.65;100523.05;214220;1274;139655;-76
2022/03/09 12:23:01;;;;;;;12.90;6.60;;;;;;;8.79;50.76;100519.21;215702;1274;140317;-78
2022/03/09 12:28:28;;;;;;;14.40;6.90;;;;;;;8.74;50.82;100522.88;214215;1274;139306;-74
2022/03/09 12:33:34;;;;;;;11.40;4.70;;;;;;;8.84;50.72;100522.81;215059;1274;141668;-77
2022/03/09 12:38:40;;;;;;;7.10;5.10;;;;;;;8.96;50.39;100521.12;215289;1274;140848;-75
2022/03/09 12:43:49;;;;;;;8.00;4.20;;;;;;;8.91;49.32;100524.11;213698;1274;139810;-69
2022/03/09 12:49:14;;;;;;;9.00;5.70;;;;;;;8.82;49.52;100518.40;214959;1274;140381;-80
2022/03/09 12:54:36;;;;;;;5.70;4.00;;;;;;;8.87;49.30;100515.06;213695;1274;140820;-76
2022/03/09 13:00:00;;;;;;;7.50;4.70;;;;;;;8.83;48.98;100512.09;213083;1274;140882;-79
2022/03/09 13:05:04;;;;;;;5.10;3.20;;;;;;;8.79;48.99;100515.48;213866;1274;161833;-77
2022/03/09 13:10:11;;;;;;;6.60;4.80;;;;;;;8.79;49.15;100519.58;213519;1274;140938;-76
2022/03/09 13:15:16;;;;;;;7.30;4.40;;;;;;;8.88;48.92;100515.35;213983;1274;140961;-77
2022/03/09 13:20:21;;;;;;;6.30;4.50;;;;;;;8.86;48.92;100512.20;213688;1274;140509;-73
2022/03/09 13:25:32;;;;;;;4.70;3.30;;;;;;;8.84;48.90;100513.37;213101;1274;140962;-77
2022/03/09 13:30:36;;;;;;;4.90;4.40;;;;;;;8.81;49.19;100513.02;213853;1274;140180;-77
2022/03/09 13:35:51;;;;;;;6.00;3.90;;;;;;;8.79;49.53;100517.09;213416;1274;141563;-73
2022/03/09 13:41:08;;;;;;;6.00;4.20;;;;;;;8.83;49.62;100517.66;214273;1274;140330;-73
2022/03/09 13:46:25;;;;;;;5.20;4.00;;;;;;;8.89;49.98;100517.15;213751;1274;141329;-73
2022/03/09 13:51:35;;;;;;;6.20;4.00;;;;;;;8.93;49.80;100522.92;213308;1274;140553;-73
2022/03/09 13:56:39;;;;;;;5.40;4.30;;;;;;;8.84;50.12;100525.95;214283;1274;140182;-76
2022/03/09 14:01:47;;;;;;;8.10;4.40;;;;;;;8.81;50.50;100528.53;215124;1274;140457;-78
2022/03/09 14:06:55;;;;;;;6.60;4.10;;;;;;;8.76;50.44;100527.59;214953;1274;139438;-73
2022/03/09 14:12:12;;;;;;;6.70;4.20;;;;;;;8.70;50.49;100524.95;214602;1274;139786;-76
2022/03/09 14:17:17;;;;;;;4.90;4.00;;;;;;;8.71;50.64;100527.49;215978;1274;140638;-72
2022/03/09 14:22:22;;;;;;;5.50;3.90;;;;;;;8.79;50.92;100534.92;215969;1274;141009;-75
2022/03/09 14:27:26;;;;;;;9.10;5.90;;;;;;;8.85;50.95;100535.20;215373;1274;140920;-77
2022/03/09 14:32:31;;;;;;;10.10;6.30;;;;;;;8.85;50.77;100528.77;215409;1277;530206;-77
2022/03/09 14:37:35;;;;;;;11.50;6.80;;;;;;;8.76;50.78;100523.95;215962;1274;141239;-78
2022/03/09 14:42:39;;;;;;;11.00;5.50;;;;;;;8.68;50.95;100519.56;216092;1274;140275;-78
2022/03/09 14:47:48;;;;;;;7.40;6.00;;;;;;;8.65;50.97;100520.48;214739;1274;140632;-78
2022/03/09 14:52:54;;;;;;;11.00;6.60;;;;;;;8.58;51.32;100520.36;214513;1274;139204;-77
2022/03/09 14:57:58;;;;;;;8.50;6.00;;;;;;;8.47;51.43;100521.10;213797;1274;141824;-76
2022/03/09 15:03:06;;;;;;;6.90;5.00;;;;;;;8.49;51.78;100528.38;214431;1274;139956;-75
2022/03/09 15:08:12;;;;;;;16.30;7.60;;;;;;;8.46;51.78;100529.92;214838;1274;140924;-75
2022/03/09 15:13:17;;;;;;;9.60;5.90;;;;;;;8.38;52.03;100527.81;214242;1274;139966;-70
2022/03/09 15:18:22;;;;;;;12.30;7.80;;;;;;;8.29;52.11;100532.52;213523;1274;141197;-72
2022/03/09 15:23:27;;;;;;;13.20;8.60;;;;;;;8.19;52.33;100532.85;214210;1274;140312;-77
2022/03/09 15:28:32;;;;;;;11.20;7.30;;;;;;;8.08;52.53;100533.29;213562;1274;139930;-73
2022/03/09 15:33:37;;;;;;;7.70;6.40;;;;;;;7.94;52.74;100540.78;213727;1274;139524;-76
2022/03/09 15:38:43;;;;;;;6.50;5.40;;;;;;;7.80;52.61;100545.88;214202;1275;140841;-78
2022/03/09 15:43:47;;;;;;;9.90;5.60;;;;;;;7.70;52.81;100550.46;214405;1274;142162;-79
2022/03/09 15:49:04;;;;;;;12.20;6.80;;;;;;;7.63;53.23;100557.55;213404;1274;141005;-71
2022/03/09 15:54:11;;;;;;;7.60;4.80;;;;;;;7.53;53.43;100564.02;214068;1274;139631;-70
2022/03/09 15:59:16;;;;;;;4.00;2.90;;;;;;;7.43;53.31;100573.16;213441;1274;140575;-77
2022/03/09 16:04:21;;;;;;;5.80;3.90;;;;;;;7.32;52.86;100573.86;213794;1274;141026;-74
2022/03/09 16:09:25;;;;;;;9.70;3.50;;;;;;;7.23;53.16;100574.21;215832;1274;139385;-73
2022/03/09 16:14:29;;;;;;;5.80;4.40;;;;;;;7.17;53.04;100574.40;214585;1274;140299;-76
2022/03/09 16:19:34;;;;;;;11.40;5.60;;;;;;;7.12;53.46;100577.95;215385;1274;139895;-74
2022/03/09 16:24:39;;;;;;;6.20;4.30;;;;;;;7.08;53.60;100585.46;215927;1274;141968;-74
2022/03/09 16:29:43;;;;;;;8.40;5.70;;;;;;;7.04;54.33;100589.92;216014;1274;141489;-80
2022/03/09 16:34:48;;;;;;;11.50;7.90;;;;;;;7.01;54.32;100595.78;215900;1274;140433;-76
2022/03/09 16:39:54;;;;;;;12.20;6.90;;;;;;;6.96;54.68;100598.51;215873;1274;141559;-75
2022/03/09 16:44:58;;;;;;;16.20;7.70;;;;;;;6.92;54.79;100607.06;214792;1274;141939;-78
2022/03/09 16:50:04;;;;;;;10.10;6.40;;;;;;;6.85;54.79;100612.62;215378;1274;141526;-76
2022/03/09 16:55:10;;;;;;;14.60;8.30;;;;;;;6.79;55.13;100613.04;214724;1274;140442;-76
2022/03/09 17:00:22;;;;;;;15.20;9.00;;;;;;;6.68;55.06;100621.27;213157;1274;163573;-73
2022/03/09 17:05:26;;;;;;;15.80;10.30;;;;;;;6.56;55.32;100628.13;214284;1274;142811;-73
2022/03/09 17:10:32;;;;;;;17.00;9.80;;;;;;;6.46;55.45;100638.45;213136;1274;141591;-72
2022/03/09 17:15:36;;;;;;;16.60;11.30;;;;;;;6.39;55.56;100643.02;215230;1274;144047;-70
2022/03/09 17:20:40;;;;;;;14.10;9.90;;;;;;;6.32;56.10;100649.70;214630;1274;140815;-75
2022/03/09 17:25:44;;;;;;;19.20;11.30;;;;;;;6.28;56.65;100655.86;213504;1274;141631;-75
2022/03/09 17:30:50;;;;;;;21.50;10.30;;;;;;;6.22;56.98;100660.14;213239;1274;140586;-72
2022/03/09 17:35:54;;;;;;;20.70;12.20;;;;;;;6.16;57.38;100667.35;214177;1274;140126;-75
2022/03/09 17:40:58;;;;;;;28.30;13.30;;;;;;;6.10;57.70;100674.73;214345;1274;141028;-72
2022/03/09 17:46:02;;;;;;;27.20;12.90;;;;;;;6.06;58.48;100680.58;212819;1274;165001;-69
2022/03/09 17:51:07;;;;;;;25.00;12.40;;;;;;;5.98;58.57;100682.35;213892;1274;141470;-72
2022/03/09 17:56:11;;;;;;;25.60;13.40;;;;;;;5.94;59.22;100686.79;213451;1274;141144;-73
2022/03/09 18:01:15;;;;;;;21.80;12.50;;;;;;;5.88;59.37;100690.23;215071;1274;141711;-72
2022/03/09 18:06:20;;;;;;;25.00;12.00;;;;;;;5.85;59.81;100694.60;214655;1274;140995;-71
2022/03/09 18:11:24;;;;;;;30.20;12.40;;;;;;;5.85;59.77;100697.52;214493;1274;140495;-69
2022/03/09 18:16:33;;;;;;;20.90;12.10;;;;;;;5.83;60.33;100699.33;215490;1274;140668;-75
2022/03/09 18:21:38;;;;;;;20.80;12.30;;;;;;;5.84;60.32;100702.19;215825;1274;140850;-75
2022/03/09 18:26:42;;;;;;;20.20;11.50;;;;;;;5.84;60.60;100708.67;213295;1274;140629;-70
2022/03/09 18:31:46;;;;;;;23.30;12.10;;;;;;;5.83;60.73;100716.75;216041;1273;140822;-77
2022/03/09 18:36:51;;;;;;;19.00;10.60;;;;;;;5.80;60.96;100721.70;216090;1272;139750;-77
2022/03/09 18:41:55;;;;;;;18.60;9.90;;;;;;;5.79;61.32;100728.89;215301;1274;141651;-78
2022/03/09 18:46:59;;;;;;;22.60;12.20;;;;;;;5.75;61.40;100733.81;215818;1274;140022;-77
2022/03/09 18:52:03;;;;;;;25.90;13.20;;;;;;;5.70;61.54;100741.39;215911;1274;140868;-77
2022/03/09 18:57:07;;;;;;;17.40;11.00;;;;;;;5.68;61.95;100746.66;213340;1274;141961;-75
2022/03/09 19:02:11;;;;;;;20.60;10.60;;;;;;;5.71;62.18;100753.30;214685;1274;142425;-77
2022/03/09 19:07:18;;;;;;;16.70;10.20;;;;;;;5.66;62.18;100758.42;214793;1275;141144;-80
2022/03/09 19:12:22;;;;;;;14.80;8.90;;;;;;;5.62;62.51;100765.39;214411;1274;141178;-77
2022/03/09 19:17:25;;;;;;;14.40;8.50;;;;;;;5.59;62.65;100767.13;214155;1274;233102;-67
2022/03/09 19:22:29;;;;;;;17.20;10.30;;;;;;;5.57;62.98;100773.30;213473;1273;153235;-77
2022/03/09 19:27:33;;;;;;;18.40;10.60;;;;;;;5.53;63.07;100780.92;213126;1274;140842;-76
2022/03/09 19:32:39;;;;;;;18.00;10.80;;;;;;;5.46;63.39;100781.02;214183;1274;142002;-77
2022/03/09 19:37:43;;;;;;;18.10;10.70;;;;;;;5.38;63.76;100786.40;213242;1274;141143;-75
2022/03/09 19:42:47;;;;;;;18.80;9.80;;;;;;;5.32;63.74;100789.86;213607;1274;141935;-77
2022/03/09 19:47:50;;;;;;;16.20;10.00;;;;;;;5.29;63.95;100793.95;213788;1274;140903;-68
2022/03/09 19:52:54;;;;;;;19.90;11.20;;;;;;;5.29;64.25;100804.73;213287;1275;142223;-72
2022/03/09 19:57:58;;;;;;;14.80;9.50;;;;;;;5.26;64.63;100804.86;213607;1274;140730;-74
2022/03/09 20:03:03;;;;;;;23.60;10.10;;;;;;;5.20;64.60;100816.34;213727;1274;140222;-77
2022/03/09 20:08:07;;;;;;;32.80;14.20;;;;;;;5.13;64.78;100823.66;213077;1274;140625;-77
2022/03/09 20:13:11;;;;;;;18.50;10.00;;;;;;;5.07;65.09;100833.05;214868;1274;140927;-77
2022/03/09 20:18:16;;;;;;;25.70;11.40;;;;;;;4.97;65.43;100836.09;213092;1274;139866;-77
2022/03/09 20:23:20;;;;;;;23.90;10.10;;;;;;;4.85;65.80;100844.49;214214;1274;140867;-78
2022/03/09 20:28:23;;;;;;;13.90;9.00;;;;;;;4.76;66.08;100855.42;214280;1274;142581;-78
2022/03/09 20:33:26;;;;;;;7.80;6.60;;;;;;;4.65;66.15;100861.92;214929;1274;140177;-75
2022/03/09 20:38:30;;;;;;;12.20;6.80;;;;;;;4.54;65.90;100870.85;215936;1274;139812;-77
2022/03/09 20:43:34;;;;;;;20.30;6.90;;;;;;;4.43;66.00;100884.02;215889;1274;140351;-77
2022/03/09 20:48:42;;;;;;;17.70;9.20;;;;;;;4.36;66.28;100891.48;215733;1273;140488;-77
2022/03/09 20:53:47;;;;;;;22.90;11.40;;;;;;;4.32;66.71;100895.46;215851;1274;141399;-78
2022/03/09 20:58:53;;;;;;;20.70;11.10;;;;;;;4.24;66.69;100904.63;215834;1274;141452;-77
2022/03/09 21:03:57;;;;;;;13.20;8.10;;;;;;;4.20;66.81;100913.70;215418;1274;140652;-77
2022/03/09 21:09:03;;;;;;;13.20;9.20;;;;;;;4.13;67.01;100924.64;214413;1274;141544;-72
2022/03/09 21:14:16;;;;;;;14.80;11.10;;;;;;;4.01;67.06;100931.58;214212;1275;140956;-77
2022/03/09 21:19:20;;;;;;;17.40;9.90;;;;;;;3.91;67.50;100939.09;214326;1274;140714;-77
2022/03/09 21:25:04;;;;;;;25.20;12.00;;;;;;;3.83;67.62;100946.61;214244;1274;140849;-73
2022/03/09 21:29:49;;;;;;;20.90;12.00;;;;;;;3.73;67.80;100949.95;213450;1274;139790;-75
2022/03/09 21:34:57;;;;;;;19.60;12.10;;;;;;;3.60;67.94;100955.70;214733;1274;140064;-68
2022/03/09 21:40:02;;;;;;;;;;;;;;;3.52;68.05;100954.64;214415;1274;140487;-76
2022/03/09 21:45:07;;;;;;;17.10;11.00;;;;;;;3.48;68.46;100960.58;214389;1275;129541;-76
2022/03/09 21:50:12;;;;;;;16.50;10.90;;;;;;;3.43;68.18;100965.98;214506;1274;140800;-75
2022/03/09 21:55:17;;;;;;;18.80;10.60;;;;;;;3.38;68.53;100968.19;214042;1276;140525;-71
2022/03/09 22:00:23;;;;;;;18.80;11.30;;;;;;;3.36;68.22;100974.38;214780;1276;141427;-74
2022/03/09 22:05:29;;;;;;;18.20;11.40;;;;;;;3.32;68.35;100980.76;213457;1274;141013;-75
2022/03/09 22:10:34;;;;;;;26.30;12.20;;;;;;;3.23;68.31;100986.66;213171;1274;140632;-77
2022/03/09 22:15:40;;;;;;;20.10;11.90;;;;;;;3.13;68.66;100995.02;213331;1274;140957;-76
2022/03/09 22:20:46;;;;;;;19.50;12.50;;;;;;;3.09;68.83;101001.61;215160;1275;140227;-77
2022/03/09 22:25:54;;;;;;;20.50;12.70;;;;;;;3.03;68.89;101013.98;213756;1274;140112;-77
2022/03/09 22:31:00;;;;;;;29.80;14.40;;;;;;;2.99;68.95;101015.91;214644;1274;141216;-73
2022/03/09 22:36:04;;;;;;;25.80;15.20;;;;;;;2.95;69.20;101021.27;215868;1274;141754;-76
2022/03/09 22:41:09;;;;;;;22.90;14.70;;;;;;;2.89;69.33;101023.78;215261;1274;141818;-75
2022/03/09 22:46:13;;;;;;;24.20;13.90;;;;;;;2.89;69.56;101029.09;215675;1274;141057;-75
2022/03/09 22:51:18;;;;;;;24.20;16.70;;;;;;;2.94;69.71;101033.02;216046;1274;140918;-76
2022/03/09 22:56:22;;;;;;;24.50;15.40;;;;;;;2.93;69.78;101039.06;215824;1274;140584;-76
2022/03/09 23:01:28;;;;;;;22.80;15.70;;;;;;;2.94;70.05;101037.05;215749;1274;141559;-75
2022/03/09 23:06:34;;;;;;;27.90;16.20;;;;;;;2.96;69.94;101043.99;214800;1274;141290;-76